Time;durP1;ratioP1;P1;durP2;ratioP2;P2;SDS_P1;SDS_P2;PMS_P1;PMS_P2;Temp;Humidity;BMP_temperature;BMP_pressure;BME280_temperature;BME280_humidity;BME280_pressure;Samples;Min_cycle;Max_cycle;Signal;HPM_P1;HPM_P2
2021/01/30 00:00:14;;;;;;;1.10;0.90;;;7.40;98.00;;;;;;5074424;28;20460;-67
2021/01/30 00:02:40;;;;;;;1.20;1.00;;;7.40;98.00;;;;;;5072354;28;20458;-67
2021/01/30 00:05:08;;;;;;;1.10;0.90;;;7.50;98.00;;;;;;5074583;28;20496;-67
2021/01/30 00:07:35;;;;;;;1.10;0.90;;;7.40;98.00;;;;;;5072157;28;20479;-67
2021/01/30 00:10:03;;;;;;;1.10;0.90;;;7.40;98.00;;;;;;5074503;28;20522;-66
2021/01/30 00:12:30;;;;;;;1.20;1.00;;;7.40;98.00;;;;;;5072084;28;20460;-66
2021/01/30 00:14:57;;;;;;;1.10;1.00;;;7.40;98.00;;;;;;5074346;28;20498;-66
2021/01/30 00:17:24;;;;;;;1.10;0.90;;;7.40;98.00;;;;;;5072076;28;20595;-66
2021/01/30 00:19:50;;;;;;;1.10;1.00;;;7.40;98.00;;;;;;5073326;28;20459;-66
2021/01/30 00:22:19;;;;;;;1.10;1.00;;;7.50;98.00;;;;;;5072201;28;20523;-66
2021/01/30 00:24:48;;;;;;;1.10;1.00;;;7.50;98.00;;;;;;5074190;28;20486;-68
2021/01/30 00:27:18;;;;;;;1.10;0.90;;;7.50;98.00;;;;;;5072040;28;21070;-67
2021/01/30 00:29:46;;;;;;;1.10;0.90;;;7.50;98.00;;;;;;5074123;28;20522;-65
2021/01/30 00:32:14;;;;;;;1.10;0.90;;;7.50;98.00;;;;;;5071857;28;20489;-66
2021/01/30 00:34:41;;;;;;;1.10;0.90;;;7.40;98.00;;;;;;5073961;28;20510;-66
2021/01/30 00:37:10;;;;;;;1.10;1.00;;;7.40;98.00;;;;;;5071727;28;20487;-66
2021/01/30 00:39:38;;;;;;;1.10;0.90;;;7.40;98.00;;;;;;5072523;28;20481;-66
2021/01/30 00:42:05;;;;;;;1.10;0.90;;;7.40;98.00;;;;;;5071899;28;20456;-66
2021/01/30 00:44:33;;;;;;;1.10;0.90;;;7.40;98.00;;;;;;5073502;28;20525;-66
2021/01/30 00:47:00;;;;;;;1.10;0.90;;;7.50;98.00;;;;;;5071360;28;20857;-66
2021/01/30 00:49:28;;;;;;;1.10;0.90;;;7.40;98.00;;;;;;5073629;28;20492;-65
2021/01/30 00:51:54;;;;;;;1.10;0.90;;;7.40;98.00;;;;;;5070243;28;20485;-66
2021/01/30 00:54:22;;;;;;;1.83;1.33;;;7.30;98.00;;;;;;5073466;28;20455;-66
2021/01/30 00:56:49;;;;;;;1.10;1.00;;;7.30;98.00;;;;;;5071308;28;20470;-66
2021/01/30 00:59:17;;;;;;;1.10;0.93;;;7.30;98.00;;;;;;5073257;28;20456;-66
2021/01/30 01:01:43;;;;;;;1.10;0.90;;;7.30;98.00;;;;;;5070925;28;20958;-65
2021/01/30 01:04:10;;;;;;;1.10;1.00;;;7.30;98.00;;;;;;5073392;28;20495;-67
2021/01/30 01:06:38;;;;;;;1.10;0.90;;;7.30;98.00;;;;;;5071886;28;21115;-67
2021/01/30 01:09:06;;;;;;;1.10;0.90;;;7.40;98.00;;;;;;5073376;28;20463;-65
2021/01/30 01:11:33;;;;;;;1.20;0.90;;;7.40;98.00;;;;;;5073079;28;20826;-65
2021/01/30 01:13:59;;;;;;;1.20;1.00;;;7.40;98.00;;;;;;5071355;28;20494;-65
2021/01/30 01:16:26;;;;;;;1.17;0.90;;;7.40;98.00;;;;;;5073157;28;20648;-67
2021/01/30 01:18:53;;;;;;;1.20;0.90;;;7.40;98.00;;;;;;5070912;28;20828;-66
2021/01/30 01:21:19;;;;;;;1.40;1.17;;;7.40;98.00;;;;;;5073076;28;20508;-67
2021/01/30 01:23:47;;;;;;;1.20;0.90;;;7.50;98.00;;;;;;5071183;28;20455;-66
2021/01/30 01:26:16;;;;;;;1.20;0.90;;;7.50;98.00;;;;;;5072844;28;20488;-66
2021/01/30 01:28:43;;;;;;;1.20;0.90;;;7.50;98.00;;;;;;5070945;28;20521;-68
2021/01/30 01:31:11;;;;;;;1.20;0.90;;;7.50;98.00;;;;;;5071143;28;21063;-65
2021/01/30 01:33:38;;;;;;;1.20;0.90;;;7.50;98.00;;;;;;5070869;28;20467;-66
2021/01/30 01:36:05;;;;;;;1.20;1.00;;;7.50;98.00;;;;;;5072787;28;20930;-66
2021/01/30 01:38:37;;;;;;;1.20;1.00;;;7.60;98.00;;;;;;5070887;28;21005;-67
2021/01/30 01:41:04;;;;;;;1.20;0.90;;;7.50;98.00;;;;;;5072564;28;20890;-67
2021/01/30 01:43:31;;;;;;;2.80;1.10;;;7.60;98.00;;;;;;5070643;28;20473;-66
2021/01/30 01:46:18;;;;;;;1.20;1.00;;;7.50;98.00;;;;;;5072728;28;20864;-67
2021/01/30 01:49:00;;;;;;;1.17;0.90;;;7.50;98.00;;;;;;5070886;28;20508;-65
2021/01/30 01:51:32;;;;;;;1.20;0.90;;;7.40;98.00;;;;;;5072741;28;20597;-65
2021/01/30 01:54:03;;;;;;;1.20;1.00;;;7.40;98.00;;;;;;5070439;28;20485;-65
2021/01/30 01:56:34;;;;;;;1.20;0.90;;;7.40;98.00;;;;;;5072230;28;20477;-67
2021/01/30 01:59:05;;;;;;;1.20;1.00;;;7.50;98.00;;;;;;5070126;28;20957;-66
2021/01/30 02:01:34;;;;;;;1.20;1.00;;;7.60;98.00;;;;;;5072361;28;20495;-67
2021/01/30 02:04:01;;;;;;;1.20;1.00;;;7.50;98.00;;;;;;5070164;28;20933;-66
2021/01/30 02:06:29;;;;;;;1.10;0.90;;;7.50;98.00;;;;;;5072245;28;20570;-66
2021/01/30 02:08:55;;;;;;;1.20;0.90;;;7.50;98.00;;;;;;5069813;28;20503;-67
2021/01/30 02:11:22;;;;;;;1.20;0.90;;;7.50;98.00;;;;;;5072030;28;20513;-65
2021/01/30 02:13:55;;;;;;;1.20;1.00;;;7.50;98.00;;;;;;5069063;28;20462;-66
2021/01/30 02:16:33;;;;;;;1.20;0.90;;;7.50;98.00;;;;;;5071954;28;20468;-67
2021/01/30 02:19:43;;;;;;;1.20;1.00;;;7.50;98.00;;;;;;5069804;28;20800;-66
2021/01/30 02:22:36;;;;;;;1.20;0.90;;;7.50;98.00;;;;;;5069707;28;20487;-67
2021/01/30 02:25:31;;;;;;;1.20;1.00;;;7.50;98.00;;;;;;5071804;28;20851;-66
2021/01/30 02:28:15;;;;;;;1.20;0.90;;;7.50;98.00;;;;;;5069656;28;20987;-65
2021/01/30 02:31:17;;;;;;;1.20;1.00;;;7.50;98.00;;;;;;5071557;28;20524;-67
2021/01/30 02:34:21;;;;;;;1.20;1.00;;;7.50;98.00;;;;;;5068481;28;20482;-65
2021/01/30 02:36:54;;;;;;;1.20;0.90;;;7.40;98.00;;;;;;5069527;28;20462;-67
2021/01/30 02:39:24;;;;;;;1.10;1.00;;;7.40;98.00;;;;;;5071371;28;20452;-66
2021/01/30 02:41:57;;;;;;;1.20;1.00;;;7.40;98.00;;;;;;5069225;28;20464;-65
2021/01/30 02:44:25;;;;;;;1.20;1.00;;;7.40;98.00;;;;;;5071469;28;20889;-66
2021/01/30 02:46:56;;;;;;;1.13;0.97;;;7.40;98.00;;;;;;5069242;28;20483;-67
2021/01/30 02:49:27;;;;;;;1.17;0.90;;;7.30;98.00;;;;;;5071370;28;20457;-66
2021/01/30 02:52:02;;;;;;;1.20;0.90;;;7.30;98.00;;;;;;5069074;28;20943;-66
2021/01/30 02:54:36;;;;;;;1.20;0.90;;;7.40;98.00;;;;;;5071001;28;20462;-67
2021/01/30 02:57:05;;;;;;;1.20;1.00;;;7.40;98.00;;;;;;5069006;28;20507;-65
2021/01/30 02:59:35;;;;;;;1.17;0.90;;;7.40;98.00;;;;;;5071265;28;20534;-66
2021/01/30 03:02:01;;;;;;;1.20;1.00;;;7.40;98.00;;;;;;5069211;28;20452;-65
2021/01/30 03:04:29;;;;;;;1.20;0.90;;;7.30;98.00;;;;;;5071256;28;20453;-67
2021/01/30 03:07:24;;;;;;;1.13;1.00;;;7.30;98.00;;;;;;5069073;28;20485;-66
2021/01/30 03:10:00;;;;;;;1.10;0.90;;;7.20;98.00;;;;;;5071152;28;20889;-66
2021/01/30 03:12:38;;;;;;;1.20;0.93;;;7.20;98.00;;;;;;5067875;28;20471;-66
2021/01/30 03:15:13;;;;;;;1.13;0.93;;;7.30;98.00;;;;;;5071267;28;20460;-67
2021/01/30 03:17:43;;;;;;;1.10;0.90;;;7.30;98.00;;;;;;5069182;28;20460;-65
2021/01/30 03:20:12;;;;;;;1.20;1.00;;;7.20;98.00;;;;;;5070798;28;20501;-67
2021/01/30 03:22:44;;;;;;;1.20;0.90;;;7.20;98.00;;;;;;5068878;28;20499;-66
2021/01/30 03:25:15;;;;;;;1.10;0.90;;;7.20;98.00;;;;;;5070244;28;20466;-66
2021/01/30 03:27:42;;;;;;;1.10;0.90;;;7.20;98.00;;;;;;5067691;28;21023;-65
2021/01/30 03:30:10;;;;;;;1.20;1.00;;;7.10;98.00;;;;;;5069568;28;20496;-66
2021/01/30 03:32:38;;;;;;;1.10;0.90;;;7.20;98.00;;;;;;5068614;28;20495;-66
2021/01/30 03:35:07;;;;;;;1.10;1.00;;;7.20;98.00;;;;;;5070752;28;20474;-66
2021/01/30 03:37:34;;;;;;;1.20;0.90;;;7.20;98.00;;;;;;5068542;28;20474;-65
2021/01/30 03:40:03;;;;;;;1.20;1.00;;;7.20;98.00;;;;;;5070588;28;20457;-68
2021/01/30 03:42:31;;;;;;;1.20;1.00;;;7.20;98.00;;;;;;5068712;28;20466;-65
2021/01/30 03:44:57;;;;;;;1.20;1.00;;;7.20;98.00;;;;;;5070689;28;20456;-67
2021/01/30 03:47:24;;;;;;;1.13;0.90;;;7.20;98.00;;;;;;5068535;28;20517;-66
2021/01/30 03:49:51;;;;;;;1.17;1.00;;;7.20;98.00;;;;;;5070472;28;20475;-66
2021/01/30 03:52:17;;;;;;;1.20;1.00;;;7.30;98.00;;;;;;5068693;28;20494;-65
2021/01/30 03:54:44;;;;;;;1.10;1.00;;;7.30;98.00;;;;;;5069216;28;20491;-67
2021/01/30 03:57:11;;;;;;;1.20;1.00;;;7.20;98.00;;;;;;5068165;28;20475;-66
2021/01/30 03:59:38;;;;;;;1.17;1.00;;;7.20;98.00;;;;;;5069119;28;20466;-67
2021/01/30 04:02:09;;;;;;;1.20;1.00;;;7.20;98.00;;;;;;5067213;28;20854;-66
2021/01/30 04:04:35;;;;;;;1.20;0.90;;;7.20;98.00;;;;;;5069567;28;20474;-66
2021/01/30 04:07:06;;;;;;;1.30;1.13;;;7.20;98.00;;;;;;5068294;28;20953;-67
2021/01/30 04:09:33;;;;;;;1.20;1.00;;;7.20;98.00;;;;;;5070109;28;20959;-66
2021/01/30 04:12:01;;;;;;;1.10;0.90;;;7.20;98.00;;;;;;5068285;28;20487;-65
2021/01/30 04:14:29;;;;;;;1.10;0.90;;;7.20;98.00;;;;;;5070510;28;20963;-66
2021/01/30 04:16:59;;;;;;;1.10;0.90;;;7.10;98.00;;;;;;5069072;28;20491;-66
2021/01/30 04:19:26;;;;;;;1.10;0.90;;;7.20;98.00;;;;;;5071109;28;20486;-66
2021/01/30 04:21:52;;;;;;;1.20;1.00;;;7.20;98.00;;;;;;5071402;28;20471;-67
2021/01/30 04:24:19;;;;;;;1.10;0.90;;;7.20;98.00;;;;;;5069219;28;20562;-65
2021/01/30 04:26:46;;;;;;;1.20;1.00;;;7.20;98.00;;;;;;5071284;28;20545;-67
2021/01/30 04:29:12;;;;;;;1.20;1.00;;;7.20;98.00;;;;;;5068954;28;20499;-65
2021/01/30 04:31:40;;;;;;;1.20;1.00;;;7.20;98.00;;;;;;5070130;28;20461;-66
2021/01/30 04:34:07;;;;;;;1.10;0.90;;;7.30;98.00;;;;;;5068017;28;20455;-66
2021/01/30 04:36:33;;;;;;;1.20;1.00;;;7.30;98.00;;;;;;5072308;28;20464;-65
2021/01/30 04:39:00;;;;;;;1.17;0.90;;;7.20;98.00;;;;;;5071760;28;20460;-66
2021/01/30 04:41:40;;;;;;;1.20;0.90;;;7.30;98.00;;;;;;5073842;28;20499;-66
2021/01/30 04:44:13;;;;;;;1.10;0.90;;;7.20;98.00;;;;;;5071852;28;20459;-66
2021/01/30 04:47:10;;;;;;;1.10;0.90;;;7.20;98.00;;;;;;5073740;28;20517;-65
2021/01/30 04:49:43;;;;;;;1.20;0.90;;;7.30;98.00;;;;;;5073827;28;21066;-66
2021/01/30 04:52:15;;;;;;;1.20;0.90;;;7.30;98.00;;;;;;5071930;28;20992;-66
2021/01/30 04:54:57;;;;;;;1.20;1.00;;;7.30;98.00;;;;;;5073944;28;20897;-67
2021/01/30 04:57:36;;;;;;;1.20;1.00;;;7.20;98.00;;;;;;5071671;28;20462;-66
2021/01/30 05:00:16;;;;;;;1.10;1.00;;;7.20;98.00;;;;;;5073692;28;20463;-66
2021/01/30 05:02:52;;;;;;;1.10;0.90;;;7.20;98.00;;;;;;5071653;28;20459;-65
2021/01/30 05:05:23;;;;;;;1.10;1.00;;;7.20;98.00;;;;;;5073420;28;20465;-66
2021/01/30 05:07:56;;;;;;;1.10;0.90;;;7.20;98.00;;;;;;5071178;28;20482;-68
2021/01/30 05:10:26;;;;;;;1.10;0.90;;;7.10;98.00;;;;;;5073210;28;20465;-65
2021/01/30 05:12:57;;;;;;;1.10;0.90;;;7.10;98.00;;;;;;5071251;28;20493;-66
2021/01/30 05:15:27;;;;;;;1.10;0.90;;;7.10;98.00;;;;;;5073287;28;20890;-66
2021/01/30 05:17:59;;;;;;;1.10;0.90;;;7.20;98.00;;;;;;5071100;28;20461;-66
2021/01/30 05:20:28;;;;;;;1.20;1.00;;;7.20;98.00;;;;;;5071834;28;20485;-66
2021/01/30 05:22:55;;;;;;;1.10;0.90;;;7.20;98.00;;;;;;5071109;28;20949;-66
2021/01/30 05:25:24;;;;;;;1.20;1.00;;;7.10;98.00;;;;;;5072944;28;21017;-65
2021/01/30 05:28:02;;;;;;;1.10;1.00;;;7.10;98.00;;;;;;5070989;28;20547;-67
2021/01/30 05:30:38;;;;;;;1.10;1.00;;;7.10;98.00;;;;;;5072989;28;20458;-66
2021/01/30 05:33:18;;;;;;;1.10;0.90;;;7.10;98.00;;;;;;5071785;28;20485;-66
2021/01/30 05:35:50;;;;;;;1.10;0.90;;;7.10;98.00;;;;;;5072634;28;20461;-66
2021/01/30 05:38:30;;;;;;;1.10;1.00;;;7.10;98.00;;;;;;5070696;28;20505;-66
2021/01/30 05:41:02;;;;;;;1.20;0.90;;;7.20;98.00;;;;;;5072865;28;20485;-67
2021/01/30 05:43:36;;;;;;;1.10;0.90;;;7.20;98.00;;;;;;5070689;28;20487;-66
2021/01/30 05:46:03;;;;;;;1.10;0.90;;;7.20;98.00;;;;;;5072410;28;20541;-65
2021/01/30 05:48:35;;;;;;;1.20;1.00;;;7.20;98.00;;;;;;5069110;28;20969;-65
2021/01/30 05:51:07;;;;;;;1.13;1.00;;;7.20;98.00;;;;;;5072418;28;20456;-67
2021/01/30 05:53:34;;;;;;;1.13;0.90;;;7.20;98.00;;;;;;5071336;28;20533;-65
2021/01/30 05:56:01;;;;;;;1.20;1.00;;;7.20;98.00;;;;;;5072284;28;20475;-66
2021/01/30 05:58:28;;;;;;;1.20;1.07;;;7.20;98.00;;;;;;5070456;28;20816;-65
2021/01/30 06:01:19;;;;;;;1.17;0.90;;;7.20;98.00;;;;;;5072215;28;20452;-66
2021/01/30 06:03:55;;;;;;;1.20;1.00;;;7.20;98.00;;;;;;5070379;28;20507;-65
2021/01/30 06:06:22;;;;;;;1.10;1.00;;;7.20;98.00;;;;;;5072105;28;20989;-67
2021/01/30 06:09:06;;;;;;;1.10;0.90;;;7.20;98.00;;;;;;5068439;28;20516;-66
2021/01/30 06:11:46;;;;;;;1.20;1.00;;;7.20;98.00;;;;;;5071228;28;20496;-65
2021/01/30 06:14:28;;;;;;;1.20;1.00;;;7.30;98.00;;;;;;5070114;28;20455;-67
2021/01/30 06:16:59;;;;;;;1.20;0.90;;;7.30;98.00;;;;;;5072104;28;20456;-66
2021/01/30 06:19:29;;;;;;;1.20;0.90;;;7.30;98.00;;;;;;5069874;28;20457;-66
2021/01/30 06:22:19;;;;;;;1.20;0.90;;;7.30;98.00;;;;;;5072081;28;20498;-67
2021/01/30 06:24:46;;;;;;;1.20;0.90;;;7.30;98.00;;;;;;5072139;28;20567;-67
2021/01/30 06:27:39;;;;;;;1.20;1.00;;;7.40;98.00;;;;;;5069681;28;20523;-65
2021/01/30 06:30:09;;;;;;;1.20;0.90;;;7.30;98.00;;;;;;5062023;28;20455;-67
2021/01/30 06:32:38;;;;;;;1.20;1.00;;;7.30;98.00;;;;;;5069708;28;20488;-67
2021/01/30 06:35:21;;;;;;;2.03;1.37;;;7.20;98.00;;;;;;5070370;28;20460;-68
2021/01/30 06:37:52;;;;;;;1.10;0.90;;;7.20;98.00;;;;;;5069691;28;20454;-66
2021/01/30 06:40:24;;;;;;;1.20;0.90;;;7.20;98.00;;;;;;5071442;28;20503;-66
2021/01/30 06:42:53;;;;;;;1.17;0.93;;;7.20;98.00;;;;;;5069563;28;20499;-67
2021/01/30 06:45:28;;;;;;;1.20;1.00;;;7.20;98.00;;;;;;5071355;28;20489;-67
2021/01/30 06:47:54;;;;;;;1.20;1.00;;;7.20;98.00;;;;;;5069424;28;21045;-67
2021/01/30 06:50:33;;;;;;;1.20;0.90;;;7.20;98.00;;;;;;5071134;28;20456;-67
2021/01/30 06:53:15;;;;;;;1.20;0.90;;;7.20;98.00;;;;;;5069233;28;20499;-68
2021/01/30 06:55:42;;;;;;;1.20;1.00;;;7.20;98.00;;;;;;5071175;28;20474;-69
2021/01/30 06:58:19;;;;;;;1.20;0.90;;;7.20;98.00;;;;;;5068742;28;20552;-67
2021/01/30 07:00:47;;;;;;;1.20;0.90;;;7.20;98.00;;;;;;5071091;28;20483;-67
2021/01/30 07:03:20;;;;;;;1.10;0.90;;;7.20;98.00;;;;;;5067615;28;20496;-66
2021/01/30 07:06:00;;;;;;;1.33;1.00;;;7.30;98.00;;;;;;5070999;28;20946;-68
2021/01/30 07:08:49;;;;;;;1.20;0.90;;;7.30;98.00;;;;;;5069099;28;20968;-67
2021/01/30 07:11:44;;;;;;;1.20;0.97;;;7.30;98.00;;;;;;5070780;28;20511;-66
2021/01/30 07:14:23;;;;;;;1.20;0.90;;;7.30;98.00;;;;;;5059514;28;20501;-66
2021/01/30 07:16:57;;;;;;;1.20;0.90;;;7.30;98.00;;;;;;5071143;28;20489;-66
2021/01/30 07:19:31;;;;;;;1.13;0.90;;;7.30;98.00;;;;;;5068634;28;20459;-67
2021/01/30 07:22:04;;;;;;;1.20;1.00;;;7.30;98.00;;;;;;5070834;28;20490;-67
2021/01/30 07:24:36;;;;;;;1.20;1.00;;;7.30;98.00;;;;;;5068589;28;20518;-67
2021/01/30 07:27:09;;;;;;;1.20;1.00;;;7.30;98.00;;;;;;5070891;28;20515;-67
2021/01/30 07:29:44;;;;;;;1.20;0.90;;;7.30;98.00;;;;;;5068613;28;20502;-66
2021/01/30 07:32:20;;;;;;;1.30;1.20;;;7.40;98.00;;;;;;5070952;28;20494;-67
2021/01/30 07:35:12;;;;;;;1.20;0.90;;;7.40;98.00;;;;;;5070813;28;20455;-67
2021/01/30 07:37:53;;;;;;;1.20;1.00;;;7.40;98.00;;;;;;5061466;28;20471;-66
2021/01/30 07:40:24;;;;;;;1.20;1.00;;;7.40;98.00;;;;;;5070644;28;20824;-67
2021/01/30 07:42:58;;;;;;;1.20;1.00;;;7.40;98.00;;;;;;5068707;28;20455;-67
2021/01/30 07:45:30;;;;;;;1.20;1.00;;;7.40;98.00;;;;;;5070730;28;20453;-67
2021/01/30 07:48:13;;;;;;;1.20;0.90;;;7.50;98.00;;;;;;5067512;28;20488;-67
2021/01/30 07:50:45;;;;;;;1.20;0.93;;;7.50;98.00;;;;;;5070768;28;20492;-66
2021/01/30 07:53:16;;;;;;;1.20;1.00;;;7.60;98.00;;;;;;5067290;28;20491;-66
2021/01/30 07:56:00;;;;;;;1.20;1.00;;;7.60;98.00;;;;;;5070498;28;20815;-67
2021/01/30 07:59:02;;;;;;;1.20;1.00;;;7.60;98.00;;;;;;5068542;28;20456;-66
2021/01/30 08:01:56;;;;;;;1.20;1.00;;;7.60;98.00;;;;;;5063047;28;20455;-67
2021/01/30 08:04:49;;;;;;;1.20;0.90;;;7.60;98.00;;;;;;5068331;28;20494;-66
2021/01/30 08:07:30;;;;;;;1.20;0.90;;;7.60;98.00;;;;;;5055683;28;20561;-68
2021/01/30 08:10:05;;;;;;;1.20;1.00;;;7.60;98.00;;;;;;5070232;28;20506;-67
2021/01/30 08:12:48;;;;;;;1.20;1.00;;;7.60;98.00;;;;;;5071015;28;20513;-68
2021/01/30 08:15:22;;;;;;;1.53;1.47;;;7.70;98.00;;;;;;5074259;28;20554;-67
2021/01/30 08:18:07;;;;;;;1.20;0.90;;;7.70;98.00;;;;;;5071100;28;20501;-67
2021/01/30 08:20:46;;;;;;;1.20;1.03;;;7.80;98.00;;;;;;5074156;28;20467;-68
2021/01/30 08:23:26;;;;;;;1.20;0.93;;;7.80;98.00;;;;;;5072245;28;20479;-67
2021/01/30 08:25:57;;;;;;;1.20;0.90;;;7.80;98.00;;;;;;5074056;28;20512;-66
2021/01/30 08:28:33;;;;;;;1.20;1.00;;;7.90;98.00;;;;;;5071985;28;20518;-66
2021/01/30 08:31:00;;;;;;;1.20;1.00;;;7.90;98.00;;;;;;5073861;28;21485;-67
2021/01/30 08:33:46;;;;;;;1.30;1.10;;;8.00;98.00;;;;;;5071898;28;20469;-66
2021/01/30 08:36:33;;;;;;;1.20;0.90;;;8.00;98.00;;;;;;5073763;28;20496;-66
2021/01/30 08:39:17;;;;;;;1.20;0.90;;;8.00;98.00;;;;;;5070488;28;20951;-66
2021/01/30 08:41:48;;;;;;;1.20;1.00;;;8.10;98.00;;;;;;5073761;28;20879;-67
2021/01/30 08:44:40;;;;;;;2.17;1.20;;;8.10;98.00;;;;;;5071713;28;20459;-67
2021/01/30 08:47:19;;;;;;;1.20;0.93;;;8.10;98.00;;;;;;5072073;28;20848;-65
2021/01/30 08:50:01;;;;;;;1.20;1.10;;;8.20;98.00;;;;;;5071894;28;20457;-66
2021/01/30 08:52:38;;;;;;;1.20;1.00;;;8.20;98.00;;;;;;5071262;28;21048;-66
2021/01/30 08:55:35;;;;;;;1.20;1.00;;;8.40;98.00;;;;;;5072960;28;20463;-66
2021/01/30 08:58:02;;;;;;;1.20;1.00;;;8.30;98.00;;;;;;5071309;28;20508;-66
2021/01/30 09:01:00;;;;;;;1.20;1.00;;;8.30;98.00;;;;;;5072736;28;20461;-66
2021/01/30 09:03:47;;;;;;;1.30;1.17;;;8.30;98.00;;;;;;5071321;28;20459;-69
2021/01/30 09:06:44;;;;;;;1.50;1.47;;;8.30;98.00;;;;;;5071498;28;20503;-66
2021/01/30 09:09:14;;;;;;;1.20;1.00;;;8.30;98.00;;;;;;5056863;28;20456;-66
2021/01/30 09:11:42;;;;;;;1.20;1.00;;;8.30;98.00;;;;;;5072825;28;20481;-67
2021/01/30 09:14:39;;;;;;;1.20;1.00;;;8.40;98.00;;;;;;5071007;28;20457;-66
2021/01/30 09:17:43;;;;;;;15.73;1.20;;;8.40;98.00;;;;;;5072959;28;20827;-66
2021/01/30 09:20:19;;;;;;;1.43;1.00;;;8.50;98.00;;;;;;5070627;28;20850;-65
2021/01/30 09:22:56;;;;;;;1.20;0.90;;;8.50;98.00;;;;;;5070890;28;20457;-66
2021/01/30 09:25:37;;;;;;;1.67;1.10;;;8.60;98.00;;;;;;5072551;28;20451;-66
2021/01/30 09:28:06;;;;;;;1.20;1.00;;;8.50;98.00;;;;;;5071167;28;20482;-67
2021/01/30 09:30:38;;;;;;;1.30;1.00;;;8.50;98.00;;;;;;5072267;28;21021;-65
2021/01/30 09:33:12;;;;;;;2.27;1.20;;;8.50;98.00;;;;;;5071257;28;20497;-66
2021/01/30 09:35:42;;;;;;;1.20;0.90;;;8.60;98.00;;;;;;5072482;28;20458;-66
2021/01/30 09:38:27;;;;;;;1.20;1.00;;;8.80;98.00;;;;;;5071051;28;20819;-66
2021/01/30 09:41:09;;;;;;;1.20;1.00;;;9.40;98.00;;;;;;5070852;28;20469;-66
2021/01/30 09:43:35;;;;;;;1.20;0.90;;;10.00;98.00;;;;;;5070933;28;20467;-66
2021/01/30 09:46:06;;;;;;;1.20;1.00;;;10.60;98.00;;;;;;5072353;28;20979;-65
2021/01/30 09:48:35;;;;;;;1.20;1.00;;;10.60;98.00;;;;;;5070582;28;20456;-66
2021/01/30 09:51:03;;;;;;;1.20;1.00;;;10.50;98.00;;;;;;5071909;28;20463;-67
2021/01/30 09:53:33;;;;;;;1.30;1.10;;;10.20;98.00;;;;;;5070694;28;20516;-66
2021/01/30 09:56:12;;;;;;;1.20;1.00;;;9.90;98.00;;;;;;5071939;28;20464;-65
2021/01/30 09:58:42;;;;;;;1.20;1.00;;;9.90;98.00;;;;;;5069102;28;20475;-65
2021/01/30 10:01:13;;;;;;;1.20;1.20;;;9.70;98.00;;;;;;5071633;28;20502;-65
2021/01/30 10:03:41;;;;;;;1.20;1.10;;;9.80;98.00;;;;;;5068600;28;20488;-65
2021/01/30 10:06:14;;;;;;;1.80;1.10;;;10.20;98.00;;;;;;5071842;28;20499;-67
2021/01/30 10:08:41;;;;;;;1.20;1.00;;;10.50;98.00;;;;;;5070237;28;20472;-65
2021/01/30 10:11:12;;;;;;;1.20;1.00;;;10.30;98.00;;;;;;5071481;28;20487;-66
2021/01/30 10:13:42;;;;;;;1.20;1.00;;;10.20;98.00;;;;;;5070362;28;20888;-65
2021/01/30 10:16:15;;;;;;;1.20;1.00;;;10.00;98.00;;;;;;5071542;28;20544;-66
2021/01/30 10:18:45;;;;;;;1.60;1.20;;;9.80;98.00;;;;;;5070303;28;20502;-66
2021/01/30 10:21:14;;;;;;;1.20;1.00;;;9.60;98.00;;;;;;5071294;28;20479;-66
2021/01/30 10:23:48;;;;;;;1.50;1.10;;;9.60;98.00;;;;;;5069958;28;20934;-66
2021/01/30 10:26:20;;;;;;;2.77;1.60;;;9.50;98.00;;;;;;5071275;28;20596;-65
2021/01/30 10:28:51;;;;;;;1.20;1.00;;;9.60;98.00;;;;;;5070066;28;20450;-66
2021/01/30 10:31:22;;;;;;;1.20;1.00;;;9.60;98.00;;;;;;5070978;28;20464;-65
2021/01/30 10:33:52;;;;;;;1.20;1.00;;;9.50;98.00;;;;;;5068730;28;20456;-66
2021/01/30 10:36:21;;;;;;;1.20;0.90;;;9.50;98.00;;;;;;5071437;28;20515;-66
2021/01/30 10:38:52;;;;;;;1.20;1.00;;;9.50;98.00;;;;;;5069386;28;20465;-67
2021/01/30 10:41:22;;;;;;;1.20;1.00;;;9.50;98.00;;;;;;5071068;28;20495;-65
2021/01/30 10:43:57;;;;;;;1.67;1.30;;;9.40;98.00;;;;;;5069246;28;20457;-66
2021/01/30 10:46:33;;;;;;;1.20;1.00;;;9.40;98.00;;;;;;5071025;28;20876;-64
2021/01/30 10:49:04;;;;;;;1.20;1.00;;;9.40;98.00;;;;;;5068966;28;20546;-66
2021/01/30 10:51:32;;;;;;;2.07;1.30;;;9.30;98.00;;;;;;5070760;28;20456;-67
2021/01/30 10:54:21;;;;;;;1.20;1.00;;;9.30;98.00;;;;;;5068863;28;20487;-66
2021/01/30 10:57:16;;;;;;;1.30;1.03;;;9.20;98.00;;;;;;5064629;28;20473;-65
2021/01/30 10:59:49;;;;;;;1.20;1.10;;;9.10;98.00;;;;;;5066463;28;20521;-66
2021/01/30 11:02:37;;;;;;;1.20;0.90;;;9.20;98.00;;;;;;5070712;28;20541;-66
2021/01/30 11:05:11;;;;;;;1.60;1.10;;;9.20;98.00;;;;;;5070806;28;20462;-68
2021/01/30 11:07:43;;;;;;;1.20;0.90;;;9.20;98.00;;;;;;5068607;28;20489;-66
2021/01/30 11:10:22;;;;;;;1.20;0.90;;;9.30;98.00;;;;;;5070372;28;20463;-65
2021/01/30 11:12:50;;;;;;;1.20;1.00;;;9.30;98.00;;;;;;5068625;28;20461;-66
2021/01/30 11:15:21;;;;;;;1.20;1.00;;;9.30;98.00;;;;;;5070612;28;20496;-66
2021/01/30 11:17:48;;;;;;;1.20;1.00;;;9.20;98.00;;;;;;5068518;28;20490;-65
2021/01/30 11:20:38;;;;;;;1.20;1.00;;;9.20;98.00;;;;;;5069971;28;20755;-67
2021/01/30 11:23:05;;;;;;;1.20;1.00;;;9.20;98.00;;;;;;5068724;28;20976;-65
2021/01/30 11:25:37;;;;;;;1.30;1.00;;;9.20;98.00;;;;;;5070438;28;20821;-65
2021/01/30 11:28:05;;;;;;;1.20;1.00;;;9.20;98.00;;;;;;5068457;28;20521;-66
2021/01/30 11:30:31;;;;;;;1.20;1.10;;;9.20;98.00;;;;;;5070320;28;20462;-65
2021/01/30 11:33:01;;;;;;;1.20;0.90;;;9.20;98.00;;;;;;5068429;28;20983;-67
2021/01/30 11:35:34;;;;;;;1.20;1.00;;;9.00;98.00;;;;;;5070531;28;20464;-67
2021/01/30 11:38:05;;;;;;;1.20;0.90;;;9.00;98.00;;;;;;5067182;28;20544;-67
2021/01/30 11:40:32;;;;;;;1.20;1.00;;;9.00;98.00;;;;;;5070111;28;20947;-66
2021/01/30 11:42:59;;;;;;;1.20;1.00;;;9.00;98.00;;;;;;5068327;28;20464;-65
2021/01/30 11:45:30;;;;;;;1.20;1.00;;;8.90;98.00;;;;;;5070169;28;20449;-65
2021/01/30 11:48:00;;;;;;;1.20;1.00;;;9.00;98.00;;;;;;5066730;28;20523;-67
2021/01/30 11:50:27;;;;;;;1.20;1.10;;;9.00;98.00;;;;;;5070154;28;20959;-65
2021/01/30 11:52:54;;;;;;;1.20;0.90;;;9.00;98.00;;;;;;5068398;28;20464;-65
2021/01/30 11:55:20;;;;;;;1.20;1.10;;;9.00;98.00;;;;;;5068898;28;20503;-67
2021/01/30 11:57:48;;;;;;;1.20;0.90;;;9.10;98.00;;;;;;5068223;28;20490;-65
2021/01/30 12:00:17;;;;;;;1.20;1.00;;;9.10;98.00;;;;;;5069897;28;20508;-66
2021/01/30 12:02:44;;;;;;;1.20;1.00;;;9.10;98.00;;;;;;5068166;28;20470;-67
2021/01/30 12:05:12;;;;;;;1.20;1.00;;;9.20;98.00;;;;;;5070248;28;20458;-66
2021/01/30 12:07:40;;;;;;;1.20;1.00;;;9.20;98.00;;;;;;5069525;28;20524;-67
2021/01/30 12:10:09;;;;;;;1.20;1.10;;;9.20;98.00;;;;;;5069204;28;20460;-66
2021/01/30 12:12:36;;;;;;;1.20;1.10;;;9.30;98.00;;;;;;5070219;28;20463;-66
2021/01/30 12:15:03;;;;;;;1.20;0.90;;;9.40;98.00;;;;;;5068105;28;20546;-67
2021/01/30 12:17:35;;;;;;;1.20;1.00;;;9.50;98.00;;;;;;5070220;28;20456;-67
2021/01/30 12:20:04;;;;;;;1.30;1.00;;;9.60;98.00;;;;;;5067670;28;20465;-65
2021/01/30 12:22:30;;;;;;;1.20;1.00;;;9.60;98.00;;;;;;5069855;28;20457;-66
2021/01/30 12:24:57;;;;;;;1.20;0.90;;;9.60;98.00;;;;;;5067466;28;20458;-66
2021/01/30 12:27:25;;;;;;;1.20;1.00;;;9.60;98.00;;;;;;5069746;28;20989;-65
2021/01/30 12:29:52;;;;;;;1.20;1.00;;;9.50;98.00;;;;;;5067501;28;20454;-66
2021/01/30 12:32:18;;;;;;;1.20;1.00;;;9.40;98.00;;;;;;5069875;28;20458;-66
2021/01/30 12:34:45;;;;;;;1.20;1.00;;;9.40;98.00;;;;;;5067678;28;20464;-65
2021/01/30 12:37:12;;;;;;;1.20;0.90;;;9.40;98.00;;;;;;5069826;28;20456;-66
2021/01/30 12:39:39;;;;;;;1.20;0.90;;;9.30;98.00;;;;;;5067563;28;20454;-66
2021/01/30 12:42:07;;;;;;;1.20;0.93;;;9.30;98.00;;;;;;5069756;28;20484;-67
2021/01/30 12:44:34;;;;;;;1.20;1.00;;;9.20;98.00;;;;;;5067914;28;20969;-65
2021/01/30 12:47:02;;;;;;;1.20;1.10;;;9.20;98.00;;;;;;5069368;28;20485;-67
2021/01/30 12:49:28;;;;;;;1.20;0.90;;;9.30;98.00;;;;;;5067810;28;20500;-66
2021/01/30 12:51:55;;;;;;;2.07;1.10;;;9.20;98.00;;;;;;5069384;28;20509;-66
2021/01/30 12:54:26;;;;;;;1.43;1.10;;;9.20;98.00;;;;;;5066472;28;20495;-67
2021/01/30 12:56:53;;;;;;;1.20;0.90;;;9.10;98.00;;;;;;5070332;28;20576;-66
2021/01/30 12:59:19;;;;;;;1.20;1.00;;;9.20;98.00;;;;;;5071435;28;20541;-65
2021/01/30 13:01:46;;;;;;;1.20;0.90;;;9.10;98.00;;;;;;5072976;28;20462;-65
2021/01/30 13:04:13;;;;;;;1.20;1.00;;;9.00;98.00;;;;;;5071206;28;20468;-66
2021/01/30 13:06:39;;;;;;;1.30;1.10;;;9.10;98.00;;;;;;5071852;28;20467;-65
2021/01/30 13:09:06;;;;;;;1.20;0.97;;;9.20;98.00;;;;;;5071218;28;20465;-67
2021/01/30 13:11:33;;;;;;;1.20;0.90;;;9.30;98.00;;;;;;5073356;28;20454;-67
2021/01/30 13:14:00;;;;;;;1.43;1.20;;;9.20;98.00;;;;;;5070946;28;20522;-68
2021/01/30 13:16:27;;;;;;;1.20;1.00;;;9.30;98.00;;;;;;5073179;28;20968;-66
2021/01/30 13:18:54;;;;;;;1.20;1.00;;;9.20;98.00;;;;;;5069468;28;20489;-68
2021/01/30 13:21:23;;;;;;;1.20;0.90;;;9.10;98.00;;;;;;5072997;28;20459;-65
2021/01/30 13:23:50;;;;;;;1.20;0.90;;;9.10;98.00;;;;;;5071027;28;20469;-67
2021/01/30 13:26:18;;;;;;;1.20;1.00;;;8.90;98.00;;;;;;5072992;28;20562;-66